createdAt,value
2023-05-03T00:01:20.958Z,67.04
2023-05-03T00:03:53.834Z,66.68
2023-05-03T00:06:21.680Z,66.41
2023-05-03T00:08:48.978Z,66.86
2023-05-03T00:11:16.033Z,67.07
2023-05-03T00:13:43.605Z,67.11
2023-05-03T00:16:10.351Z,67.33
2023-05-03T00:18:37.307Z,67.11
2023-05-03T00:21:04.432Z,67.61
2023-05-03T00:23:31.397Z,68.84
2023-05-03T00:25:59.346Z,67.64
2023-05-03T00:28:26.292Z,67.61
2023-05-03T00:30:53.780Z,67.85
2023-05-03T00:33:20.899Z,66.89
2023-05-03T00:35:47.814Z,67.75
2023-05-03T00:38:15.486Z,67.91
2023-05-03T00:40:43.246Z,68.72
2023-05-03T00:43:35.676Z,68.05
2023-05-03T00:46:15.987Z,67.39
2023-05-03T00:49:09.151Z,68.65
2023-05-03T00:51:36.068Z,68.13
2023-05-03T00:54:03.149Z,67.81
2023-05-03T00:56:32.975Z,67.46
2023-05-03T00:59:06.331Z,66.95
2023-05-03T01:01:33.138Z,66.58
2023-05-03T01:04:05.449Z,66.43
2023-05-03T01:06:48.503Z,66.78
2023-05-03T01:09:37.720Z,66.08
2023-05-03T01:12:46.499Z,66.56
2023-05-03T01:15:25.925Z,66.79
2023-05-03T01:17:59.847Z,67.09
2023-05-03T01:20:31.093Z,66.47
2023-05-03T01:22:58.154Z,66.01
2023-05-03T01:25:25.319Z,65.86
2023-05-03T01:27:52.271Z,65.79
2023-05-03T01:30:25.705Z,65.78
2023-05-03T01:33:01.506Z,65.78
2023-05-03T01:35:37.273Z,66.10
2023-05-03T01:38:05.131Z,66.12
2023-05-03T01:40:36.814Z,65.58
2023-05-03T01:43:04.606Z,65.76
2023-05-03T01:45:31.539Z,67.43
2023-05-03T01:47:58.491Z,66.86
2023-05-03T01:50:25.205Z,66.38
2023-05-03T01:52:55.364Z,66.86
2023-05-03T01:55:22.129Z,66.60
2023-05-03T01:57:48.922Z,66.76
2023-05-03T02:00:16.374Z,67.13
2023-05-03T02:02:44.202Z,67.18
2023-05-03T02:05:12.479Z,67.26
2023-05-03T02:07:39.298Z,67.04
2023-05-03T02:10:07.107Z,67.29
2023-05-03T02:12:33.901Z,66.92
2023-05-03T02:15:00.719Z,67.52
2023-05-03T02:17:27.800Z,67.06
2023-05-03T02:19:55.206Z,67.09
2023-05-03T02:22:21.958Z,67.10
2023-05-03T02:24:49.036Z,67.00
2023-05-03T02:27:17.522Z,66.93
2023-05-03T02:29:44.414Z,67.24
2023-05-03T02:32:11.728Z,67.28
2023-05-03T02:34:39.488Z,66.80
2023-05-03T02:37:07.802Z,66.38
2023-05-03T02:39:34.567Z,67.33
2023-05-03T02:42:02.576Z,67.71
2023-05-03T02:44:30.408Z,67.73
2023-05-03T02:46:58.739Z,68.67
2023-05-03T02:49:26.258Z,67.73
2023-05-03T02:51:56.772Z,68.30
2023-05-03T02:54:24.389Z,67.46
2023-05-03T02:56:51.754Z,68.34
2023-05-03T02:59:18.828Z,69.35
2023-05-03T03:01:47.120Z,68.63
2023-05-03T03:04:16.193Z,69.12
2023-05-03T03:06:43.138Z,68.40
2023-05-03T03:09:10.040Z,68.57
2023-05-03T03:11:36.757Z,67.96
2023-05-03T03:14:03.416Z,67.71
2023-05-03T03:16:30.624Z,67.75
2023-05-03T03:18:57.537Z,68.31
2023-05-03T03:21:24.369Z,68.17
2023-05-03T03:23:51.429Z,67.12
2023-05-03T03:26:18.943Z,66.86
2023-05-03T03:28:46.189Z,66.81
2023-05-03T03:31:13.904Z,67.24
2023-05-03T03:33:42.584Z,67.52
2023-05-03T03:36:14.728Z,67.33
2023-05-03T03:38:44.955Z,67.96
2023-05-03T03:41:11.810Z,67.53
2023-05-03T03:43:38.976Z,68.00
2023-05-03T03:46:10.452Z,67.70
2023-05-03T03:48:37.419Z,67.27
2023-05-03T03:51:04.678Z,67.66
2023-05-03T03:53:37.632Z,67.30
2023-05-03T03:57:17.988Z,67.12
2023-05-03T03:59:45.475Z,67.21
2023-05-03T04:02:12.356Z,68.18
2023-05-03T04:04:39.363Z,67.34
2023-05-03T04:07:06.489Z,66.98
2023-05-03T04:09:33.772Z,67.47
2023-05-03T04:12:01.992Z,67.69
2023-05-03T04:14:28.766Z,67.48
2023-05-03T04:16:56.043Z,66.95
2023-05-03T04:19:23.877Z,67.50
2023-05-03T04:21:50.915Z,66.99
2023-05-03T04:24:19.883Z,66.37
2023-05-03T04:26:46.752Z,66.48
2023-05-03T04:29:20.381Z,67.13
2023-05-03T04:31:47.872Z,66.72
2023-05-03T04:34:16.259Z,66.26
2023-05-03T04:36:47.343Z,65.72
2023-05-03T04:39:17.331Z,66.20
2023-05-03T04:41:46.907Z,65.77
2023-05-03T04:44:14.399Z,65.19
2023-05-03T04:46:43.512Z,66.05
2023-05-03T04:49:10.489Z,65.88
2023-05-03T04:51:37.129Z,66.15
2023-05-03T04:54:03.967Z,65.40
2023-05-03T04:56:31.520Z,65.71
2023-05-03T04:59:08.844Z,68.15
2023-05-03T05:01:36.224Z,66.07
2023-05-03T05:04:04.958Z,64.61
2023-05-03T05:06:38.523Z,63.79
2023-05-03T05:09:07.749Z,63.54
2023-05-03T05:11:34.918Z,67.23
2023-05-03T05:14:02.224Z,66.73
2023-05-03T05:16:29.484Z,67.86
2023-05-03T05:18:56.841Z,67.51
2023-05-03T05:21:27.292Z,65.87
2023-05-03T05:23:55.841Z,65.87
2023-05-03T05:26:23.794Z,67.51
2023-05-03T05:28:53.410Z,68.21
2023-05-03T05:31:21.190Z,69.38
2023-05-03T05:33:50.675Z,66.91
2023-05-03T05:36:21.230Z,65.43
2023-05-03T05:38:50.696Z,64.48
2023-05-03T05:41:18.666Z,64.30
2023-05-03T05:43:46.889Z,64.67
2023-05-03T05:46:15.057Z,65.57
2023-05-03T05:48:43.164Z,64.85
2023-05-03T05:51:12.477Z,64.75
2023-05-03T05:53:40.827Z,63.96
2023-05-03T05:56:09.441Z,64.35
2023-05-03T05:58:39.848Z,64.61
2023-05-03T06:02:03.530Z,63.28
2023-05-03T06:04:31.109Z,63.74
2023-05-03T06:07:00.333Z,61.72
2023-05-03T06:09:28.401Z,60.92
2023-05-03T06:12:01.526Z,59.06
2023-05-03T06:14:31.959Z,58.01
2023-05-03T06:17:01.384Z,56.71
2023-05-03T06:19:31.419Z,56.34
2023-05-03T06:22:00.026Z,56.04
2023-05-03T06:24:31.405Z,55.69
2023-05-03T06:27:00.337Z,55.52
2023-05-03T06:29:29.839Z,55.66
2023-05-03T06:31:58.262Z,56.46
2023-05-03T06:34:27.152Z,54.42
2023-05-03T06:36:56.419Z,53.82
2023-05-03T06:39:33.183Z,54.06
2023-05-03T06:42:02.807Z,52.42
2023-05-03T06:44:38.703Z,52.86
2023-05-03T06:51:06.891Z,51.42
2023-05-03T06:53:35.565Z,50.74
2023-05-03T06:56:04.378Z,50.68
2023-05-03T06:58:37.595Z,50.44
2023-05-03T07:01:06.061Z,50.06
2023-05-03T07:03:34.009Z,49.97
2023-05-03T07:06:01.740Z,49.18
2023-05-03T07:08:29.737Z,48.81
2023-05-03T07:10:57.758Z,47.87
2023-05-03T07:13:25.280Z,47.52
2023-05-03T07:15:54.149Z,47.43
2023-05-03T07:18:22.375Z,46.67
2023-05-03T07:20:50.100Z,46.32
2023-05-03T07:23:20.043Z,46.89
2023-05-03T07:25:52.172Z,47.41
2023-05-03T07:28:20.224Z,46.46
2023-05-03T15:29:24.790Z,35.37
2023-05-03T15:31:51.686Z,44.00
2023-05-03T15:34:18.460Z,37.81
2023-05-03T15:36:45.112Z,39.25
2023-05-03T15:39:13.065Z,36.29
2023-05-03T15:41:39.970Z,35.18
2023-05-03T15:44:08.303Z,38.47
2023-05-03T15:46:35.223Z,38.96
2023-05-03T15:49:02.281Z,37.92
2023-05-03T15:51:29.731Z,37.85
2023-05-03T15:53:56.575Z,37.88
2023-05-03T15:56:26.773Z,34.36
2023-05-03T15:58:54.191Z,35.44
2023-05-03T16:01:21.067Z,37.76
2023-05-03T16:03:48.111Z,37.48
2023-05-03T16:06:20.715Z,34.45
2023-05-03T16:08:47.672Z,37.72
2023-05-03T16:11:15.129Z,36.94
2023-05-03T16:13:41.953Z,36.29
2023-05-03T16:16:08.989Z,36.23
2023-05-03T16:18:35.860Z,36.10
2023-05-03T16:21:05.218Z,35.77
2023-05-03T16:23:32.124Z,33.75
2023-05-03T16:25:58.929Z,34.87
2023-05-03T16:28:26.320Z,38.13
2023-05-03T16:30:56.053Z,36.34
2023-05-03T16:33:23.071Z,35.44
2023-05-03T16:35:50.196Z,35.74
2023-05-03T16:38:17.036Z,34.71
2023-05-03T16:40:44.019Z,38.08
2023-05-03T16:43:11.028Z,36.93
2023-05-03T16:45:38.003Z,39.14
2023-05-03T16:48:07.378Z,40.70
2023-05-03T16:50:37.303Z,38.35
2023-05-03T16:53:04.268Z,37.70
2023-05-03T16:55:31.076Z,37.95
2023-05-03T16:57:58.223Z,38.96
2023-05-03T17:00:25.156Z,36.85
2023-05-03T17:02:52.164Z,36.98
2023-05-03T17:09:16.132Z,36.49
2023-05-03T17:11:47.425Z,37.53
2023-05-03T17:14:14.304Z,38.05
2023-05-03T17:16:42.356Z,41.48
2023-05-03T17:19:09.617Z,36.93
2023-05-03T17:21:36.565Z,41.99
2023-05-03T17:24:03.568Z,42.33
2023-05-03T17:26:31.825Z,43.07
2023-05-03T17:29:01.158Z,45.72
2023-05-03T17:31:28.082Z,46.82
2023-05-03T17:33:55.129Z,43.40
2023-05-03T17:36:22.596Z,43.34
2023-05-03T17:38:49.923Z,42.62
2023-05-03T17:41:18.317Z,45.90
2023-05-03T17:43:45.340Z,46.14
2023-05-03T17:46:14.874Z,48.75
2023-05-03T17:48:47.829Z,49.25
2023-05-03T17:51:15.269Z,49.76
2023-05-03T17:53:43.242Z,50.26
2023-05-03T17:56:18.077Z,49.11
2023-05-03T17:58:46.905Z,49.14
2023-05-03T18:01:15.800Z,49.31
2023-05-03T18:03:43.105Z,48.40
2023-05-03T18:06:12.460Z,49.18
2023-05-03T18:08:39.598Z,49.98
2023-05-03T18:11:06.465Z,49.51
2023-05-03T18:13:33.555Z,49.64
2023-05-03T18:16:01.110Z,49.46
2023-05-03T18:18:28.063Z,50.89
2023-05-03T18:21:02.425Z,49.98
2023-05-03T18:23:30.520Z,53.00
2023-05-03T18:25:57.398Z,53.55
2023-05-03T18:28:24.224Z,55.85
2023-05-03T18:31:01.263Z,55.15
2023-05-03T18:33:28.128Z,55.74
2023-05-03T18:35:57.832Z,54.11
2023-05-03T18:38:24.887Z,55.54
2023-05-03T18:40:51.981Z,55.47
2023-05-03T18:43:19.516Z,56.05
2023-05-03T18:46:18.900Z,57.91
2023-05-03T18:49:04.152Z,58.02
2023-05-03T18:51:32.684Z,56.56
2023-05-03T18:54:01.027Z,56.99
2023-05-03T18:56:30.332Z,57.58
2023-05-03T18:58:57.202Z,57.87
2023-05-03T19:01:26.867Z,59.49
2023-05-03T19:03:56.452Z,58.03
2023-05-03T19:06:29.692Z,58.96
2023-05-03T19:08:56.629Z,57.74
2023-05-03T19:11:27.027Z,57.47
2023-05-03T19:13:54.026Z,58.51
2023-05-03T19:16:21.049Z,54.89
2023-05-03T19:18:48.267Z,57.56
2023-05-03T19:21:17.599Z,57.56
2023-05-03T19:23:45.054Z,57.98
2023-05-03T19:26:11.968Z,57.73
2023-05-03T19:28:38.904Z,58.42
2023-05-03T19:31:06.265Z,59.43
2023-05-03T19:33:33.979Z,59.76
2023-05-03T19:36:06.645Z,58.80
2023-05-03T19:38:36.861Z,58.70
2023-05-03T19:41:12.489Z,57.90
2023-05-03T19:43:40.689Z,58.67
2023-05-03T19:46:07.834Z,58.56
2023-05-03T19:48:35.095Z,60.20
2023-05-03T19:51:02.665Z,59.80
2023-05-03T19:53:29.532Z,59.63
2023-05-03T19:55:58.159Z,60.88
2023-05-03T19:58:25.763Z,59.12
2023-05-03T20:00:53.223Z,60.22
2023-05-03T20:03:22.723Z,60.67
2023-05-03T20:05:49.993Z,61.05
2023-05-03T20:08:16.880Z,60.97
2023-05-03T20:10:46.204Z,61.88
2023-05-03T20:13:13.540Z,61.88
2023-05-03T20:15:42.367Z,62.95
2023-05-03T20:18:09.459Z,63.08
2023-05-03T20:20:36.647Z,64.60
2023-05-03T20:23:03.389Z,65.16
2023-05-03T20:25:30.229Z,64.58
2023-05-03T20:28:11.680Z,63.88
2023-05-03T20:30:38.804Z,64.91
2023-05-03T20:33:05.687Z,64.70
2023-05-03T20:35:32.502Z,65.16
2023-05-03T20:37:59.274Z,65.24
2023-05-03T20:40:26.082Z,65.35
2023-05-03T20:42:52.846Z,64.38
2023-05-03T20:45:19.704Z,63.75
2023-05-03T20:47:46.528Z,63.85
2023-05-03T20:50:13.459Z,63.76
2023-05-03T20:52:40.296Z,64.50
2023-05-03T20:55:07.434Z,64.63
2023-05-03T20:57:34.365Z,65.61
2023-05-03T21:03:58.799Z,66.06
2023-05-03T21:06:25.564Z,63.97
2023-05-03T21:08:52.896Z,65.75
2023-05-03T21:11:19.778Z,65.29
2023-05-03T21:13:46.454Z,62.75
2023-05-03T21:16:15.485Z,65.89
2023-05-03T21:18:42.457Z,64.18
2023-05-03T21:21:09.215Z,66.35
2023-05-03T21:23:35.931Z,66.96
2023-05-03T21:26:02.835Z,67.50
2023-05-03T21:28:31.746Z,66.93
2023-05-03T21:30:58.844Z,66.44
2023-05-03T21:33:25.584Z,67.03
2023-05-03T21:35:52.325Z,67.52
2023-05-03T21:38:19.217Z,67.60
2023-05-03T21:40:47.407Z,66.89
2023-05-03T21:43:16.600Z,65.90
2023-05-03T21:45:44.264Z,65.75
2023-05-03T21:48:11.018Z,66.53
2023-05-03T21:50:41.064Z,67.48
2023-05-03T21:53:08.021Z,68.33
2023-05-03T21:55:34.833Z,68.65
2023-05-03T21:58:01.621Z,67.75
2023-05-03T22:00:29.044Z,67.23
2023-05-03T22:02:56.009Z,66.05
2023-05-03T22:05:25.394Z,67.18
2023-05-03T22:07:52.201Z,65.31
2023-05-03T22:10:19.124Z,66.05
2023-05-03T22:12:46.261Z,67.35
2023-05-03T22:15:16.322Z,67.31
2023-05-03T22:17:43.401Z,67.05
2023-05-03T22:20:10.827Z,67.90
2023-05-03T22:22:37.848Z,68.07
2023-05-03T22:25:05.158Z,68.87
2023-05-03T22:27:31.837Z,67.95
2023-05-03T22:29:58.620Z,67.83
2023-05-03T22:32:25.526Z,68.25
2023-05-03T22:34:52.401Z,67.69
2023-05-03T22:37:19.481Z,68.94
2023-05-03T22:39:46.304Z,68.83
2023-05-03T22:42:13.283Z,69.52
2023-05-03T22:44:40.183Z,69.37
2023-05-03T22:47:07.006Z,68.97
2023-05-03T22:49:33.773Z,69.02
2023-05-03T22:52:00.588Z,69.80
2023-05-03T22:54:27.432Z,70.36
2023-05-03T22:56:54.813Z,69.51
2023-05-03T22:59:21.721Z,69.56
2023-05-03T23:01:49.663Z,69.66
2023-05-03T23:04:16.842Z,69.76
2023-05-03T23:06:44.700Z,69.50
2023-05-03T23:09:11.837Z,70.79
2023-05-03T23:11:38.677Z,70.31
2023-05-03T23:14:06.245Z,69.46
2023-05-03T23:16:33.118Z,69.21
2023-05-03T23:19:26.778Z,69.01
2023-05-03T23:21:53.745Z,69.09
2023-05-03T23:24:20.572Z,68.54
2023-05-03T23:26:47.441Z,69.03
2023-05-03T23:29:14.526Z,70.77
2023-05-03T23:31:41.889Z,70.41
2023-05-03T23:34:09.125Z,71.29
2023-05-03T23:36:35.933Z,69.76
2023-05-03T23:39:05.897Z,70.24
2023-05-03T23:41:34.076Z,69.75
2023-05-03T23:44:01.094Z,70.23
2023-05-03T23:46:28.062Z,70.13
2023-05-03T23:50:08.617Z,68.99
2023-05-03T23:52:35.477Z,69.27
2023-05-03T23:55:02.480Z,70.33
2023-05-03T23:57:29.343Z,69.87
2023-05-03T23:59:56.277Z,71.18
